»·PEaware :: UAL612 KBUR-KSFO

UAL612 :: KBUR-KSFO

FLIGHT INFORMATION

Flight Status: Arrived
Operator:
United Airlines
More flights by this operator :: More flights under this callsign
Pilot: Anonymous 12234 (12234)
Aircraft: BOEING 727-200
(B722)
More flights by this aircraft type
Origin: KBUR Bob Hope-Burbank
United States
Destination: KSFO San Francisco Intl
United States
More flights between these airports :: More routes between these airports
Route: VNY3 AVE J6 ROBIE BSR BSR3
File this flight plan on PilotEdge
Remarks:
Altitude:
(Current/Filed)
28,000ft
Speed:
(Current/Filed)
429kts
Departed: 10-Feb-19 09:33 AM
Arrived: 10-Feb-19 10:33 AM
Distance/Time
Traveled:
283nm/1:00
Distance/Time
To Go:
Arrived

Flight Plot

Page will automatically refresh every two minutes.

Flight plan parsing failed; only flown route is shown


Map Options




Map Legend


Flown Route
Filed Route
Departure Airport
Arrival Airport
Navaid (VOR, NDB)
Fix

Horizontal Profiles

Position Reports

Time Latitude Longitude Heading Altitude Ground
Speed
10-Feb-19 08:49 34.195386 -118.354958 63 788ft 0kts
10-Feb-19 08:50 34.195386 -118.354958 63 788ft 0kts
10-Feb-19 08:51 34.195386 -118.354958 63 788ft 0kts
10-Feb-19 08:52 34.195386 -118.354958 63 788ft 0kts
10-Feb-19 08:53 34.195386 -118.354958 63 788ft 0kts
10-Feb-19 08:54 34.195386 -118.354958 63 788ft 0kts
10-Feb-19 08:55 34.195386 -118.354958 63 788ft 0kts
10-Feb-19 08:56 34.195386 -118.354958 63 788ft 0kts
10-Feb-19 08:57 34.195386 -118.354958 63 788ft 0kts
10-Feb-19 08:58 34.195386 -118.354958 63 788ft 0kts
10-Feb-19 08:59 34.195386 -118.354958 63 788ft 0kts
10-Feb-19 09:00 34.195386 -118.354958 63 788ft 0kts
10-Feb-19 09:01 34.195386 -118.354958 63 788ft 0kts
10-Feb-19 09:02 34.195386 -118.354958 63 788ft 0kts
10-Feb-19 09:03 34.195386 -118.354958 63 788ft 0kts
10-Feb-19 09:04 34.195386 -118.354958 63 788ft 0kts
10-Feb-19 09:05 34.195386 -118.354958 63 788ft 0kts
10-Feb-19 09:06 34.195386 -118.354958 63 788ft 0kts
10-Feb-19 09:07 34.195386 -118.354958 63 788ft 0kts
10-Feb-19 09:08 34.195386 -118.354958 63 788ft 0kts
10-Feb-19 09:09 34.195386 -118.354958 63 788ft 0kts
10-Feb-19 09:10 34.195386 -118.354958 63 788ft 0kts
10-Feb-19 09:11 34.195386 -118.354958 63 788ft 0kts
10-Feb-19 09:12 34.195386 -118.354958 63 788ft 0kts
10-Feb-19 09:13 34.195386 -118.354958 63 788ft 0kts
10-Feb-19 09:14 34.195386 -118.354958 63 788ft 0kts
10-Feb-19 09:15 34.195386 -118.354958 63 788ft 0kts
10-Feb-19 09:16 34.195121 -118.355103 344 788ft 1kts
10-Feb-19 09:17 34.195097 -118.355095 345 788ft 0kts
10-Feb-19 09:18 34.195097 -118.355095 345 788ft 0kts
10-Feb-19 09:19 34.195097 -118.355095 345 788ft 0kts
10-Feb-19 09:20 34.195097 -118.355095 345 788ft 0kts
10-Feb-19 09:21 34.195097 -118.355095 345 788ft 0kts
10-Feb-19 09:22 34.195097 -118.355095 345 788ft 0kts
10-Feb-19 09:23 34.195097 -118.355095 345 788ft 0kts
10-Feb-19 09:24 34.195097 -118.355095 345 788ft 0kts
10-Feb-19 09:25 34.195097 -118.355095 345 788ft 0kts
10-Feb-19 09:26 34.195097 -118.355095 345 788ft 0kts
10-Feb-19 09:27 34.195865 -118.355322 347 788ft 16kts
10-Feb-19 09:28 34.200731 -118.355907 347 788ft 20kts
10-Feb-19 09:29 34.207012 -118.357647 347 788ft 24kts
10-Feb-19 09:30 34.211465 -118.359006 321 788ft 0kts
10-Feb-19 09:31 34.211413 -118.360186 172 788ft 7kts
10-Feb-19 09:32 34.207776 -118.359218 166 788ft 86kts
10-Feb-19 09:33 34.172580 -118.366968 223 2301ft 160kts
10-Feb-19 09:34 34.136899 -118.417349 257 4645ft 228kts
10-Feb-19 09:35 34.185137 -118.469903 350 7548ft 307kts
10-Feb-19 09:36 34.279017 -118.488055 333 9029ft 367kts
10-Feb-19 09:37 34.358682 -118.533603 328 9889ft 300kts
10-Feb-19 09:38 34.428650 -118.580897 322 11551ft 314kts
10-Feb-19 09:39 34.500477 -118.635673 319 14283ft 317kts
10-Feb-19 09:40 34.572412 -118.691906 318 16609ft 326kts
10-Feb-19 09:41 34.650999 -118.749805 321 18775ft 337kts
10-Feb-19 09:42 34.734984 -118.805352 321 20688ft 347kts
10-Feb-19 09:43 34.818327 -118.866264 316 22325ft 350kts
10-Feb-19 09:44 34.899371 -118.934524 316 23836ft 357kts
10-Feb-19 09:45 34.985217 -119.000805 318 25567ft 367kts
10-Feb-19 09:46 35.072382 -119.068638 314 27286ft 370kts
10-Feb-19 09:47 35.151491 -119.135635 316 28042ft 396kts
10-Feb-19 09:48 35.235271 -119.205429 316 28042ft 433kts
10-Feb-19 09:49 35.337917 -119.291415 318 28032ft 452kts
10-Feb-19 09:50 35.441783 -119.372948 318 28015ft 425kts
10-Feb-19 09:51 35.538087 -119.452878 303 28000ft 397kts
10-Feb-19 09:52 35.581583 -119.572919 282 28006ft 380kts
10-Feb-19 09:53 35.599346 -119.696828 275 28027ft 385kts
10-Feb-19 09:54 35.615412 -119.828053 277 28023ft 393kts
10-Feb-19 09:55 35.644701 -119.958119 286 28021ft 402kts
10-Feb-19 09:57 35.691888 -120.081862 288 28017ft 400kts
10-Feb-19 09:58 35.731493 -120.209298 286 28021ft 395kts
10-Feb-19 09:59 35.769753 -120.335546 285 28020ft 390kts
10-Feb-19 10:00 35.805382 -120.460602 285 28018ft 385kts
10-Feb-19 10:01 35.843521 -120.583685 289 28016ft 382kts
10-Feb-19 10:02 35.882419 -120.696955 288 28032ft 379kts
10-Feb-19 10:03 35.923420 -120.817241 288 28031ft 381kts
10-Feb-19 10:04 35.964566 -120.938831 288 28028ft 381kts
10-Feb-19 10:05 36.000746 -121.061195 281 28043ft 377kts
10-Feb-19 10:06 36.027454 -121.186513 285 28067ft 375kts
10-Feb-19 10:07 36.060203 -121.308933 287 28064ft 374kts
10-Feb-19 10:08 36.105905 -121.420296 293 28064ft 374kts
10-Feb-19 10:09 36.144472 -121.537965 288 28063ft 370kts
10-Feb-19 10:10 36.185392 -121.650012 306 27214ft 376kts
10-Feb-19 10:11 36.277070 -121.715682 312 24442ft 388kts
10-Feb-19 10:12 36.359188 -121.789895 317 24094ft 345kts
10-Feb-19 10:13 36.439226 -121.851404 321 24101ft 346kts
10-Feb-19 10:14 36.538554 -121.872624 339 23560ft 366kts
10-Feb-19 10:15 36.636956 -121.890296 336 20468ft 369kts
10-Feb-19 10:15 36.715761 -121.917617 334 17735ft 351kts
10-Feb-19 10:17 36.826914 -121.961976 334 14874ft 361kts
10-Feb-19 10:18 36.915182 -121.999329 336 12528ft 317kts
10-Feb-19 10:18 36.980825 -122.026282 337 10443ft 292kts
10-Feb-19 10:19 37.053837 -122.048712 348 9669ft 263kts
10-Feb-19 10:20 37.123502 -122.061018 347 8643ft 259kts
10-Feb-19 10:22 37.205368 -122.079402 346 7501ft 254kts
10-Feb-19 10:22 37.261357 -122.096323 341 6672ft 251kts
10-Feb-19 10:23 37.328032 -122.119980 341 5991ft 236kts
10-Feb-19 10:24 37.384442 -122.136590 344 5636ft 211kts
10-Feb-19 10:25 37.442386 -122.151794 344 4543ft 212kts
10-Feb-19 10:26 37.499608 -122.166181 346 3722ft 200kts
10-Feb-19 10:27 37.544115 -122.198181 302 2849ft 170kts
10-Feb-19 10:28 37.564158 -122.246775 297 1974ft 126kts
10-Feb-19 10:29 37.580856 -122.285238 295 1229ft 123kts
10-Feb-19 10:30 37.596751 -122.322932 297 683ft 122kts
10-Feb-19 10:31 37.612837 -122.361080 297 43ft 125kts
10-Feb-19 10:32 37.621560 -122.381891 296 21ft 22kts
10-Feb-19 10:33 37.621141 -122.383222 203 21ft 0kts
10-Feb-19 10:34 37.620246 -122.383609 206 21ft 6kts
10-Feb-19 10:35 37.619784 -122.383973 215 21ft 0kts
10-Feb-19 10:36 37.619784 -122.383973 215 21ft 0kts

Navigation Log

Ident Type
Flight plan parsing failed, navigation log unavailable